Time;durP1;ratioP1;P1;durP2;ratioP2;P2;SDS_P1;SDS_P2;PMS_P1;PMS_P2;Temp;Humidity;BMP_temperature;BMP_pressure;BME280_temperature;BME280_humidity;BME280_pressure;Samples;Min_cycle;Max_cycle;Signal;HPM_P1;HPM_P2
2024/01/16 00:00:26;;;;;;;570.58;61.83;;;;;;;;;;10473698;28;20032;-76
2024/01/16 00:05:27;;;;;;;555.15;60.58;;;;;;;;;;10483593;28;20091;-79
2024/01/16 00:10:27;;;;;;;573.33;62.13;;;;;;;;;;10504566;28;20024;-83
2024/01/16 00:15:27;;;;;;;581.87;63.17;;;;;;;;;;10499693;28;20277;-81
2024/01/16 00:20:27;;;;;;;584.78;63.50;;;;;;;;;;10491830;28;20278;-81
2024/01/16 00:25:28;;;;;;;571.65;61.85;;;;;;;;;;10473181;28;20032;-77
2024/01/16 00:30:29;;;;;;;602.22;66.80;;;;;;;;;;10479986;28;20075;-83
2024/01/16 00:35:30;;;;;;;601.13;65.72;;;;;;;;;;10483841;28;20044;-78
2024/01/16 00:40:30;;;;;;;414.13;50.85;;;;;;;;;;10483111;28;20033;-76
2024/01/16 00:45:35;;;;;;;589.42;64.43;;;;;;;;;;10485188;28;20033;-77
2024/01/16 00:50:35;;;;;;;601.63;66.38;;;;;;;;;;10482365;28;20075;-78
2024/01/16 00:55:35;;;;;;;606.92;66.95;;;;;;;;;;10471279;28;20132;-78
2024/01/16 01:00:37;;;;;;;588.25;64.53;;;;;;;;;;10480168;28;20034;-82
2024/01/16 01:05:37;;;;;;;580.63;63.45;;;;;;;;;;10498613;28;20028;-81
2024/01/16 01:10:37;;;;;;;580.70;63.80;;;;;;;;;;10487713;28;20024;-81
2024/01/16 01:15:38;;;;;;;623.40;71.50;;;;;;;;;;10486492;28;20500;-78
2024/01/16 01:20:38;;;;;;;600.38;65.88;;;;;;;;;;10481888;28;20088;-82
2024/01/16 01:25:39;;;;;;;585.05;64.18;;;;;;;;;;10488204;28;20027;-81
2024/01/16 01:30:40;;;;;;;588.17;64.72;;;;;;;;;;10519540;28;20083;-77
2024/01/16 01:35:40;;;;;;;605.30;67.28;;;;;;;;;;10520996;28;20433;-74
2024/01/16 01:40:40;;;;;;;614.47;69.43;;;;;;;;;;10526964;28;20028;-78
2024/01/16 01:45:40;;;;;;;625.22;72.10;;;;;;;;;;10522075;28;20036;-78
2024/01/16 01:50:41;;;;;;;620.60;70.90;;;;;;;;;;10513318;28;20024;-77
2024/01/16 01:55:41;;;;;;;602.72;67.05;;;;;;;;;;10513677;28;20024;-76
2024/01/16 02:00:43;;;;;;;603.45;67.10;;;;;;;;;;10511393;28;20410;-81
2024/01/16 02:05:44;;;;;;;613.70;69.97;;;;;;;;;;10517416;28;20051;-76
2024/01/16 02:10:47;;;;;;;622.97;71.80;;;;;;;;;;10509303;28;20027;-77
2024/01/16 02:15:47;;;;;;;611.63;68.18;;;;;;;;;;10508425;28;20081;-82
2024/01/16 02:20:48;;;;;;;596.15;65.97;;;;;;;;;;10509304;28;20514;-76
2024/01/16 02:25:48;;;;;;;589.17;65.20;;;;;;;;;;10508685;28;20089;-78
2024/01/16 02:30:48;;;;;;;560.30;65.88;;;;;;;;;;10510664;28;20055;-82
2024/01/16 02:35:48;;;;;;;638.67;76.10;;;;;;;;;;10509697;28;20032;-79
2024/01/16 02:40:49;;;;;;;643.88;78.72;;;;;;;;;;10534612;28;20042;-78
2024/01/16 02:45:49;;;;;;;641.70;77.38;;;;;;;;;;10511408;28;20020;-81
2024/01/16 02:50:49;;;;;;;638.08;75.93;;;;;;;;;;10503799;28;20528;-76
2024/01/16 02:55:51;;;;;;;630.83;74.55;;;;;;;;;;10504026;28;20035;-80
2024/01/16 03:00:52;;;;;;;629.80;73.55;;;;;;;;;;10503877;28;20067;-82
2024/01/16 03:05:52;;;;;;;635.03;75.03;;;;;;;;;;10529733;28;20115;-82
2024/01/16 03:10:53;;;;;;;640.40;75.45;;;;;;;;;;10511835;28;20446;-83
2024/01/16 03:15:53;;;;;;;631.80;74.95;;;;;;;;;;10509821;28;20463;-77
2024/01/16 03:20:53;;;;;;;633.38;74.88;;;;;;;;;;10530822;22;20052;-77
2024/01/16 03:25:53;;;;;;;626.38;73.45;;;;;;;;;;10511446;28;20012;-76
2024/01/16 03:30:54;;;;;;;593.72;69.68;;;;;;;;;;10538665;28;20195;-76
2024/01/16 03:35:54;;;;;;;563.75;62.45;;;;;;;;;;10538723;28;20348;-76
2024/01/16 03:40:54;;;;;;;593.30;65.50;;;;;;;;;;10539236;28;20360;-76
2024/01/16 03:45:57;;;;;;;573.75;62.88;;;;;;;;;;10537650;28;20244;-77
2024/01/16 03:50:57;;;;;;;581.10;63.72;;;;;;;;;;10519730;28;20241;-77
2024/01/16 03:55:57;;;;;;;608.72;68.28;;;;;;;;;;10538327;28;20024;-77
2024/01/16 04:00:57;;;;;;;122.47;23.73;;;;;;;;;;10537853;28;20031;-76
2024/01/16 04:05:58;;;;;;;167.43;29.35;;;;;;;;;;10519933;28;20589;-76
2024/01/16 04:10:58;;;;;;;640.55;76.53;;;;;;;;;;10520005;28;20080;-76
2024/01/16 04:15:58;;;;;;;644.22;76.78;;;;;;;;;;10537912;28;20091;-76
2024/01/16 04:20:58;;;;;;;638.05;74.53;;;;;;;;;;10537877;28;20245;-77
2024/01/16 04:25:59;;;;;;;628.33;72.70;;;;;;;;;;10531394;28;20076;-77
2024/01/16 04:31:00;;;;;;;637.28;75.10;;;;;;;;;;10537621;28;20023;-77
2024/01/16 04:36:00;;;;;;;642.22;77.13;;;;;;;;;;10487950;28;20310;-77
2024/01/16 04:41:03;;;;;;;638.78;75.95;;;;;;;;;;10523242;28;20250;-78
2024/01/16 04:46:03;;;;;;;632.28;73.22;;;;;;;;;;10543271;28;20378;-76
2024/01/16 04:51:04;;;;;;;628.30;72.78;;;;;;;;;;10545545;28;20911;-77
2024/01/16 04:56:04;;;;;;;625.13;71.65;;;;;;;;;;10528663;28;20061;-77
2024/01/16 05:01:04;;;;;;;621.22;70.63;;;;;;;;;;10532077;28;20028;-77
2024/01/16 05:06:05;;;;;;;622.10;70.55;;;;;;;;;;10537430;28;20074;-78
2024/01/16 05:11:05;;;;;;;616.53;69.28;;;;;;;;;;10524654;28;20298;-75
2024/01/16 05:16:06;;;;;;;617.95;69.75;;;;;;;;;;10549000;28;20302;-74
2024/01/16 05:21:07;;;;;;;605.92;67.25;;;;;;;;;;10546961;28;20344;-75
2024/01/16 05:26:07;;;;;;;616.83;69.47;;;;;;;;;;10547163;28;20235;-74
2024/01/16 05:31:07;;;;;;;598.83;65.60;;;;;;;;;;10519481;28;20013;-74
2024/01/16 05:36:07;;;;;;;587.95;64.28;;;;;;;;;;10528201;28;20671;-75
2024/01/16 05:41:08;;;;;;;575.70;62.47;;;;;;;;;;10546770;28;20026;-76
2024/01/16 05:46:08;;;;;;;601.88;66.07;;;;;;;;;;10546284;28;20023;-75
2024/01/16 05:51:08;;;;;;;601.38;66.18;;;;;;;;;;10545474;28;20019;-76
2024/01/16 05:56:09;;;;;;;596.63;65.10;;;;;;;;;;10524023;28;20036;-76
2024/01/16 06:01:09;;;;;;;597.88;65.40;;;;;;;;;;10522928;28;20266;-74
2024/01/16 06:06:09;;;;;;;592.30;64.60;;;;;;;;;;10541929;28;20032;-76
2024/01/16 06:11:10;;;;;;;610.72;68.25;;;;;;;;;;10518360;28;20028;-75
2024/01/16 06:16:10;;;;;;;611.45;68.13;;;;;;;;;;10538811;28;20046;-76
2024/01/16 06:21:12;;;;;;;611.15;68.43;;;;;;;;;;10512072;28;20052;-75
2024/01/16 06:26:12;;;;;;;620.00;70.22;;;;;;;;;;10544035;28;20069;-76
2024/01/16 06:31:12;;;;;;;605.08;66.65;;;;;;;;;;10544114;28;20227;-74
2024/01/16 06:36:12;;;;;;;607.47;67.50;;;;;;;;;;10506385;28;20083;-75
2024/01/16 06:41:12;;;;;;;607.33;67.07;;;;;;;;;;10543701;28;20313;-75
2024/01/16 06:46:13;;;;;;;608.53;67.57;;;;;;;;;;10531649;28;20023;-76
2024/01/16 06:51:14;;;;;;;607.50;67.43;;;;;;;;;;10543112;28;20234;-76
2024/01/16 06:56:14;;;;;;;609.42;67.07;;;;;;;;;;10542720;28;20043;-75
2024/01/16 07:01:14;;;;;;;598.10;65.53;;;;;;;;;;10542585;28;20012;-76
2024/01/16 07:06:14;;;;;;;595.35;65.22;;;;;;;;;;10523841;28;20023;-76
2024/01/16 07:11:15;;;;;;;602.72;65.78;;;;;;;;;;10524386;28;20342;-75
2024/01/16 07:16:15;;;;;;;594.90;64.68;;;;;;;;;;10523504;28;20038;-75
2024/01/16 07:21:18;;;;;;;69.32;9.85;;;;;;;;;;10541997;28;20047;-75
2024/01/16 07:26:18;;;;;;;279.23;39.70;;;;;;;;;;10518299;28;20028;-74
2024/01/16 07:31:19;;;;;;;66.43;16.45;;;;;;;;;;10523651;28;20015;-75
2024/01/16 07:36:19;;;;;;;161.07;29.88;;;;;;;;;;10495994;28;20016;-75
2024/01/16 07:41:20;;;;;;;36.00;8.32;;;;;;;;;;10542200;28;20011;-74
2024/01/16 07:46:20;;;;;;;172.95;32.10;;;;;;;;;;10540971;28;20031;-75
2024/01/16 07:51:20;;;;;;;220.43;36.67;;;;;;;;;;10540687;28;20103;-75
2024/01/16 07:56:21;;;;;;;346.23;45.13;;;;;;;;;;10541492;28;20019;-76
2024/01/16 08:01:21;;;;;;;312.35;41.83;;;;;;;;;;10493682;28;20344;-77
2024/01/16 08:06:21;;;;;;;157.13;25.45;;;;;;;;;;10540118;28;20325;-79
2024/01/16 08:11:23;;;;;;;52.00;11.65;;;;;;;;;;10512887;28;20069;-79
2024/01/16 08:16:23;;;;;;;351.02;46.13;;;;;;;;;;10524966;28;20204;-79
2024/01/16 08:21:24;;;;;;;468.20;54.00;;;;;;;;;;10518579;28;20031;-78
2024/01/16 08:26:24;;;;;;;470.60;54.40;;;;;;;;;;10540618;28;20019;-78
2024/01/16 08:31:24;;;;;;;457.35;53.65;;;;;;;;;;10540070;28;20286;-79
2024/01/16 08:36:24;;;;;;;442.35;52.70;;;;;;;;;;10540234;28;20258;-78
2024/01/16 08:41:25;;;;;;;424.65;51.25;;;;;;;;;;10521952;28;20018;-78
2024/01/16 08:46:25;;;;;;;276.30;40.28;;;;;;;;;;10521488;28;20016;-78
2024/01/16 08:51:25;;;;;;;328.33;43.03;;;;;;;;;;10539109;28;20031;-78
2024/01/16 08:56:26;;;;;;;517.78;60.30;;;;;;;;;;10539619;28;20013;-79
2024/01/16 09:01:26;;;;;;;643.90;102.40;;;;;;;;;;10524248;28;20020;-79
2024/01/16 09:06:26;;;;;;;438.15;55.97;;;;;;;;;;10538703;28;20031;-77
2024/01/16 09:11:26;;;;;;;253.40;39.22;;;;;;;;;;10539070;28;20020;-79
2024/01/16 09:16:27;;;;;;;493.35;57.38;;;;;;;;;;10536849;28;20096;-77
2024/01/16 09:21:28;;;;;;;279.75;41.25;;;;;;;;;;10515183;28;20685;-78
2024/01/16 09:26:28;;;;;;;155.32;30.98;;;;;;;;;;10517697;28;20016;-77
2024/01/16 09:31:28;;;;;;;139.98;27.10;;;;;;;;;;10547062;28;20022;-79
2024/01/16 09:36:29;;;;;;;218.30;33.17;;;;;;;;;;10546441;28;20020;-78
2024/01/16 09:41:32;;;;;;;381.52;47.50;;;;;;;;;;10548271;28;20367;-79
2024/01/16 09:46:34;;;;;;;89.88;22.70;;;;;;;;;;10531845;28;20020;-77
2024/01/16 09:51:34;;;;;;;293.33;41.90;;;;;;;;;;10513787;28;20377;-78
2024/01/16 09:56:36;;;;;;;106.07;25.35;;;;;;;;;;10545037;28;20024;-77
2024/01/16 10:01:37;;;;;;;198.02;35.63;;;;;;;;;;10537087;28;20103;-79
2024/01/16 10:06:38;;;;;;;201.45;35.72;;;;;;;;;;10527310;28;20028;-78
2024/01/16 10:11:38;;;;;;;237.87;37.43;;;;;;;;;;10527106;28;20226;-79
2024/01/16 10:17:01;;;;;;;283.02;42.50;;;;;;;;;;10544902;28;20270;-78
2024/01/16 10:22:03;;;;;;;139.80;31.05;;;;;;;;;;10510772;28;20044;-77
2024/01/16 10:27:03;;;;;;;435.77;54.60;;;;;;;;;;10548324;28;20055;-78
2024/01/16 10:32:08;;;;;;;617.08;75.03;;;;;;;;;;10525622;28;20016;-77
2024/01/16 10:37:08;;;;;;;620.25;76.15;;;;;;;;;;10510991;28;20085;-77
2024/01/16 10:42:08;;;;;;;600.35;75.38;;;;;;;;;;10526390;28;20015;-79
2024/01/16 10:47:12;;;;;;;436.30;59.10;;;;;;;;;;10543781;28;20024;-78
2024/01/16 10:52:12;;;;;;;419.58;58.42;;;;;;;;;;10543084;28;20083;-78
2024/01/16 10:57:13;;;;;;;449.83;60.42;;;;;;;;;;10542886;28;20016;-78
2024/01/16 11:02:14;;;;;;;214.82;40.25;;;;;;;;;;10543114;28;20052;-78
2024/01/16 11:07:16;;;;;;;195.57;38.38;;;;;;;;;;10542361;28;20214;-77
2024/01/16 11:12:19;;;;;;;355.15;51.60;;;;;;;;;;10542228;28;20012;-79
2024/01/16 11:17:20;;;;;;;606.58;74.22;;;;;;;;;;10542394;28;20043;-78
2024/01/16 11:22:21;;;;;;;566.20;66.28;;;;;;;;;;10542874;28;20035;-80
2024/01/16 11:27:24;;;;;;;460.60;57.13;;;;;;;;;;10541733;28;20043;-78
2024/01/16 11:32:53;;;;;;;480.70;59.70;;;;;;;;;;10533450;28;20023;-80
2024/01/16 11:37:54;;;;;;;466.85;57.15;;;;;;;;;;10511912;28;20035;-77
2024/01/16 11:42:55;;;;;;;480.05;57.97;;;;;;;;;;10510115;28;20027;-77
2024/01/16 11:48:09;;;;;;;431.27;54.75;;;;;;;;;;10540583;28;20327;-76
2024/01/16 11:53:09;;;;;;;462.08;56.53;;;;;;;;;;10524118;28;20347;-75
2024/01/16 11:58:21;;;;;;;523.25;61.22;;;;;;;;;;10541037;28;20042;-76
2024/01/16 12:03:22;;;;;;;540.45;66.38;;;;;;;;;;10526078;28;20133;-76
2024/01/16 12:08:22;;;;;;;608.25;72.05;;;;;;;;;;10541190;28;20110;-76
2024/01/16 12:13:22;;;;;;;617.00;74.30;;;;;;;;;;10521410;28;20241;-77
2024/01/16 12:18:23;;;;;;;541.15;61.97;;;;;;;;;;10530561;28;20032;-76
2024/01/16 12:23:23;;;;;;;562.53;65.78;;;;;;;;;;10521920;28;20163;-76
2024/01/16 12:28:23;;;;;;;527.47;61.53;;;;;;;;;;10539030;28;20210;-76
2024/01/16 12:33:23;;;;;;;528.38;62.53;;;;;;;;;;10539029;28;20302;-76
2024/01/16 12:38:24;;;;;;;531.83;62.77;;;;;;;;;;10539205;28;20036;-77
2024/01/16 12:43:24;;;;;;;602.78;77.93;;;;;;;;;;10520712;28;20305;-77
2024/01/16 12:48:25;;;;;;;601.67;94.22;;;;;;;;;;10538931;28;20214;-77
2024/01/16 12:53:25;;;;;;;587.03;68.22;;;;;;;;;;10521736;28;20265;-77
2024/01/16 12:58:31;;;;;;;568.50;65.20;;;;;;;;;;10521497;28;20024;-77
2024/01/16 13:03:31;;;;;;;554.45;64.53;;;;;;;;;;10526927;28;20085;-77
2024/01/16 13:08:32;;;;;;;508.45;58.38;;;;;;;;;;10529574;28;20060;-77
2024/01/16 13:13:32;;;;;;;563.38;66.18;;;;;;;;;;10528463;28;20126;-76
2024/01/16 13:18:33;;;;;;;553.75;63.00;;;;;;;;;;10520222;28;20248;-77
2024/01/16 13:23:33;;;;;;;542.78;64.25;;;;;;;;;;10528909;28;20038;-77
2024/01/16 13:28:33;;;;;;;546.50;61.80;;;;;;;;;;10528011;28;20585;-76
2024/01/16 13:33:33;;;;;;;553.60;62.80;;;;;;;;;;10529116;28;20258;-75
2024/01/16 13:38:33;;;;;;;554.22;63.13;;;;;;;;;;10528964;28;20051;-76
2024/01/16 13:43:34;;;;;;;584.28;66.60;;;;;;;;;;10527652;28;20217;-76
2024/01/16 13:48:34;;;;;;;595.08;68.53;;;;;;;;;;10540796;28;20016;-76
2024/01/16 13:53:35;;;;;;;585.60;66.90;;;;;;;;;;10527247;28;20306;-76
2024/01/16 13:58:35;;;;;;;579.42;67.13;;;;;;;;;;10544824;28;20325;-77
2024/01/16 14:03:35;;;;;;;561.15;63.92;;;;;;;;;;10544362;28;20095;-77
2024/01/16 14:08:35;;;;;;;580.53;72.28;;;;;;;;;;10526275;28;20018;-77
2024/01/16 14:13:37;;;;;;;611.80;103.28;;;;;;;;;;10526766;28;20185;-77
2024/01/16 14:18:37;;;;;;;677.97;248.85;;;;;;;;;;10525828;28;20079;-76
2024/01/16 14:23:38;;;;;;;581.72;68.70;;;;;;;;;;10543762;28;20024;-76
2024/01/16 14:28:38;;;;;;;612.20;81.00;;;;;;;;;;10542535;28;20317;-76
2024/01/16 14:33:38;;;;;;;618.22;118.80;;;;;;;;;;10524641;28;20290;-76
2024/01/16 14:38:38;;;;;;;627.70;87.25;;;;;;;;;;10535421;28;20293;-76
2024/01/16 14:43:39;;;;;;;532.25;60.78;;;;;;;;;;10526513;28;20035;-75
2024/01/16 14:48:46;;;;;;;590.83;68.22;;;;;;;;;;10544094;28;20065;-76
2024/01/16 14:53:46;;;;;;;604.42;71.07;;;;;;;;;;10528582;28;20015;-76
2024/01/16 14:58:46;;;;;;;465.30;55.50;;;;;;;;;;10544027;28;20369;-76
2024/01/16 15:03:48;;;;;;;512.22;59.22;;;;;;;;;;10510962;28;20444;-76
2024/01/16 15:08:49;;;;;;;485.90;56.65;;;;;;;;;;10552064;28;20062;-77
2024/01/16 15:13:49;;;;;;;425.38;52.17;;;;;;;;;;10544139;28;20020;-76
2024/01/16 15:18:49;;;;;;;391.80;49.75;;;;;;;;;;10542693;28;20370;-77
2024/01/16 15:23:49;;;;;;;520.38;62.70;;;;;;;;;;10541852;28;20061;-78
2024/01/16 15:28:50;;;;;;;460.83;54.97;;;;;;;;;;10524810;28;20016;-78
2024/01/16 15:33:50;;;;;;;566.38;66.82;;;;;;;;;;10542918;28;20031;-79
2024/01/16 15:38:50;;;;;;;587.60;72.47;;;;;;;;;;10523778;28;20325;-79
2024/01/16 15:43:50;;;;;;;590.60;76.53;;;;;;;;;;10524343;28;20336;-78
2024/01/16 15:48:51;;;;;;;583.72;70.32;;;;;;;;;;10542064;28;20328;-78
2024/01/16 15:53:51;;;;;;;566.45;67.82;;;;;;;;;;10523379;28;20046;-78
2024/01/16 15:58:51;;;;;;;589.58;70.60;;;;;;;;;;10528314;28;20019;-77
2024/01/16 16:03:51;;;;;;;620.80;108.57;;;;;;;;;;10510599;28;20348;-79
2024/01/16 16:08:53;;;;;;;578.45;67.38;;;;;;;;;;10541950;28;20117;-79
2024/01/16 16:13:53;;;;;;;609.30;106.65;;;;;;;;;;10524040;28;20077;-78
2024/01/16 16:18:54;;;;;;;729.47;437.00;;;;;;;;;;10522169;28;20043;-77
2024/01/16 16:23:54;;;;;;;727.83;414.95;;;;;;;;;;10540195;28;20594;-79
2024/01/16 16:28:57;;;;;;;638.05;210.77;;;;;;;;;;10540556;28;20337;-78
2024/01/16 16:33:59;;;;;;;662.08;219.15;;;;;;;;;;10522780;28;20310;-79
2024/01/16 16:38:59;;;;;;;681.05;223.93;;;;;;;;;;10551633;28;20118;-82
2024/01/16 16:44:00;;;;;;;714.00;348.65;;;;;;;;;;10535460;28;20199;-82
2024/01/16 16:49:00;;;;;;;670.40;264.27;;;;;;;;;;10525345;28;20083;-77
2024/01/16 16:54:00;;;;;;;691.63;279.60;;;;;;;;;;10547672;28;20039;-78
2024/01/16 16:59:01;;;;;;;720.90;385.73;;;;;;;;;;10549198;28;20012;-75
2024/01/16 17:04:01;;;;;;;657.85;234.43;;;;;;;;;;10548543;28;20313;-80
2024/01/16 17:09:01;;;;;;;701.65;320.08;;;;;;;;;;10548253;28;20019;-75
2024/01/16 17:14:02;;;;;;;673.72;204.77;;;;;;;;;;10547691;28;20016;-74
2024/01/16 17:19:03;;;;;;;688.25;254.52;;;;;;;;;;10547538;28;20054;-76
2024/01/16 17:24:04;;;;;;;646.13;287.20;;;;;;;;;;10529330;28;20186;-75
2024/01/16 17:29:04;;;;;;;712.95;365.08;;;;;;;;;;10540133;28;20028;-79
2024/01/16 17:34:05;;;;;;;714.35;365.83;;;;;;;;;;10531244;28;20035;-81
2024/01/16 17:39:08;;;;;;;701.30;305.25;;;;;;;;;;10545899;28;20298;-81
2024/01/16 17:44:09;;;;;;;499.30;78.53;;;;;;;;;;10526359;28;20055;-80
2024/01/16 17:49:09;;;;;;;428.77;50.90;;;;;;;;;;10545563;28;20035;-81
2024/01/16 17:54:09;;;;;;;540.20;65.72;;;;;;;;;;10530423;28;20023;-80
2024/01/16 17:59:12;;;;;;;636.85;84.32;;;;;;;;;;10548545;28;20023;-79
2024/01/16 18:04:13;;;;;;;622.78;73.88;;;;;;;;;;10548921;28;20027;-81
2024/01/16 18:09:15;;;;;;;614.13;73.32;;;;;;;;;;10531519;28;20316;-81
2024/01/16 18:14:15;;;;;;;586.13;89.68;;;;;;;;;;10527477;28;20031;-81
2024/01/16 18:19:17;;;;;;;664.13;234.65;;;;;;;;;;10544632;28;20341;-80
2024/01/16 18:24:18;;;;;;;716.17;350.55;;;;;;;;;;10549186;28;20036;-82
2024/01/16 18:29:22;;;;;;;698.42;283.50;;;;;;;;;;10518403;28;20023;-81
2024/01/16 18:34:22;;;;;;;701.65;302.60;;;;;;;;;;10514732;28;20060;-77
2024/01/16 18:39:25;;;;;;;705.75;296.63;;;;;;;;;;10538575;28;20024;-76
2024/01/16 18:44:25;;;;;;;599.33;183.82;;;;;;;;;;10534888;28;20134;-78
2024/01/16 18:49:26;;;;;;;487.65;56.88;;;;;;;;;;10524648;28;20053;-79
2024/01/16 18:54:26;;;;;;;612.05;70.18;;;;;;;;;;10534790;28;20032;-84
2024/01/16 18:59:28;;;;;;;604.15;68.80;;;;;;;;;;10536653;28;20354;-78
2024/01/16 19:04:29;;;;;;;639.92;80.82;;;;;;;;;;10526265;28;20076;-78
2024/01/16 19:09:36;;;;;;;619.33;71.72;;;;;;;;;;10516819;28;20024;-79
2024/01/16 19:14:37;;;;;;;440.00;51.38;;;;;;;;;;10534507;28;20099;-77
2024/01/16 19:19:37;;;;;;;631.63;76.90;;;;;;;;;;10510445;28;20239;-77
2024/01/16 19:24:38;;;;;;;632.72;77.10;;;;;;;;;;10513188;28;20028;-78
2024/01/16 19:29:38;;;;;;;601.45;67.00;;;;;;;;;;10512798;28;20024;-78
2024/01/16 19:34:38;;;;;;;596.67;66.40;;;;;;;;;;10508019;28;20020;-77
2024/01/16 19:39:42;;;;;;;589.03;66.28;;;;;;;;;;10520031;28;20020;-78
2024/01/16 19:44:45;;;;;;;570.65;64.70;;;;;;;;;;10534391;28;20036;-76
2024/01/16 19:49:48;;;;;;;559.00;62.17;;;;;;;;;;10529226;28;20350;-77
2024/01/16 19:54:49;;;;;;;600.88;70.38;;;;;;;;;;10532116;28;20040;-76
2024/01/16 19:59:50;;;;;;;629.90;77.63;;;;;;;;;;10529227;28;20328;-76
2024/01/16 20:04:50;;;;;;;623.40;76.05;;;;;;;;;;10529117;28;20042;-77
2024/01/16 20:09:50;;;;;;;620.35;73.53;;;;;;;;;;10528940;28;20212;-75
2024/01/16 20:14:50;;;;;;;621.28;74.72;;;;;;;;;;10529298;28;20217;-73
2024/01/16 20:19:51;;;;;;;572.08;64.20;;;;;;;;;;10528394;28;20063;-75
2024/01/16 20:24:54;;;;;;;547.20;60.72;;;;;;;;;;10511161;28;20048;-79
2024/01/16 20:29:54;;;;;;;560.22;62.13;;;;;;;;;;10509863;28;20182;-74
2024/01/16 20:34:54;;;;;;;586.70;64.68;;;;;;;;;;10528637;28;20035;-75
2024/01/16 20:39:54;;;;;;;593.13;64.72;;;;;;;;;;10510575;28;20020;-74
2024/01/16 20:44:55;;;;;;;592.83;66.22;;;;;;;;;;10528391;28;20191;-76
2024/01/16 20:49:55;;;;;;;602.25;69.00;;;;;;;;;;10527988;28;20019;-76
2024/01/16 20:54:55;;;;;;;594.45;66.60;;;;;;;;;;10510414;28;20124;-76
2024/01/16 20:59:55;;;;;;;575.05;63.08;;;;;;;;;;10528086;28;20085;-76
2024/01/16 21:04:55;;;;;;;605.13;68.95;;;;;;;;;;10529359;28;20070;-78
2024/01/16 21:09:56;;;;;;;605.65;68.18;;;;;;;;;;10527654;28;20028;-77
2024/01/16 21:14:56;;;;;;;605.05;67.32;;;;;;;;;;10526975;28;20035;-75
2024/01/16 21:19:56;;;;;;;600.78;67.85;;;;;;;;;;10509537;28;20040;-77
2024/01/16 21:24:56;;;;;;;607.97;69.38;;;;;;;;;;10515742;28;20337;-78
2024/01/16 21:29:57;;;;;;;622.60;74.47;;;;;;;;;;10518918;28;20028;-79
2024/01/16 21:34:57;;;;;;;621.13;73.75;;;;;;;;;;10535368;28;20061;-79
2024/01/16 21:39:57;;;;;;;627.97;75.53;;;;;;;;;;10537902;28;20386;-78
2024/01/16 21:44:57;;;;;;;626.92;76.03;;;;;;;;;;10520661;28;20298;-77
2024/01/16 21:49:58;;;;;;;624.10;73.90;;;;;;;;;;10536035;28;20035;-78
2024/01/16 21:54:58;;;;;;;617.80;73.30;;;;;;;;;;10519882;28;20016;-75
2024/01/16 21:59:58;;;;;;;615.45;72.53;;;;;;;;;;10535971;28;20034;-80
2024/01/16 22:04:59;;;;;;;621.00;72.93;;;;;;;;;;10534959;28;20020;-76
2024/01/16 22:09:59;;;;;;;618.58;72.53;;;;;;;;;;10536581;28;20079;-81
2024/01/16 22:14:59;;;;;;;616.88;72.75;;;;;;;;;;10543708;28;20031;-89
2024/01/16 22:20:00;;;;;;;618.42;72.63;;;;;;;;;;10531497;28;20032;-82
2024/01/16 22:25:00;;;;;;;623.55;75.53;;;;;;;;;;10543540;28;20027;-82
2024/01/16 22:30:00;;;;;;;620.40;73.68;;;;;;;;;;10534213;28;20102;-87
2024/01/16 22:35:01;;;;;;;622.50;74.50;;;;;;;;;;10533709;28;20027;-84
2024/01/16 22:40:01;;;;;;;626.72;75.18;;;;;;;;;;10502474;28;20258;-86
2024/01/16 22:45:01;;;;;;;627.40;76.20;;;;;;;;;;10538698;28;20054;-77
2024/01/16 22:50:03;;;;;;;633.13;76.05;;;;;;;;;;10539759;28;20295;-87
2024/01/16 22:55:06;;;;;;;630.47;77.88;;;;;;;;;;10528721;28;20023;-75
2024/01/16 23:00:17;;;;;;;637.90;79.93;;;;;;;;;;10541259;28;20203;-75
2024/01/16 23:05:19;;;;;;;645.85;82.30;;;;;;;;;;10521017;28;20016;-75
2024/01/16 23:10:19;;;;;;;647.30;82.60;;;;;;;;;;10510257;28;20329;-73
2024/01/16 23:15:20;;;;;;;640.47;81.00;;;;;;;;;;10539955;28;20359;-75
2024/01/16 23:20:20;;;;;;;642.53;87.22;;;;;;;;;;10522549;28;20070;-76
2024/01/16 23:25:20;;;;;;;636.90;81.57;;;;;;;;;;10539988;28;20039;-72
2024/01/16 23:30:20;;;;;;;637.13;78.40;;;;;;;;;;10539646;28;20535;-75
2024/01/16 23:35:21;;;;;;;640.65;85.47;;;;;;;;;;10522692;28;20043;-75
2024/01/16 23:40:21;;;;;;;600.28;67.75;;;;;;;;;;10542205;28;20337;-75
2024/01/16 23:45:22;;;;;;;597.08;67.85;;;;;;;;;;10542069;28;20300;-75
2024/01/16 23:50:22;;;;;;;585.80;65.10;;;;;;;;;;10541576;28;20035;-74
2024/01/16 23:55:22;;;;;;;584.80;64.55;;;;;;;;;;10542288;28;20020;-75
